createdAt,value
2018-04-28T00:00:47.658Z,18.33
2018-04-28T00:01:47.813Z,18.33
2018-04-28T00:02:47.816Z,18.32
2018-04-28T00:03:47.741Z,18.29
2018-04-28T00:04:47.670Z,18.32
2018-04-28T00:05:47.771Z,18.32
2018-04-28T00:06:47.771Z,18.3
2018-04-28T00:07:47.576Z,18.3
2018-04-28T00:08:47.768Z,18.3
2018-04-28T00:09:47.845Z,18.29
2018-04-28T00:10:47.681Z,18.33
2018-04-28T00:11:47.575Z,18.29
2018-04-28T00:12:47.651Z,18.3
2018-04-28T00:13:47.754Z,18.32
2018-04-28T00:14:47.757Z,18.29
2018-04-28T00:15:47.815Z,18.3
2018-04-28T00:16:47.579Z,18.33
2018-04-28T00:17:47.727Z,18.3
2018-04-28T00:18:47.686Z,18.29
2018-04-28T00:19:47.722Z,18.32
2018-04-28T00:20:47.632Z,18.3
2018-04-28T00:21:47.649Z,18.28
2018-04-28T00:22:47.672Z,18.32
2018-04-28T00:23:47.730Z,18.3
2018-04-28T00:24:47.853Z,18.3
2018-04-28T00:25:47.724Z,18.3
2018-04-28T00:26:47.573Z,18.26
2018-04-28T00:27:47.633Z,18.3
2018-04-28T00:28:47.615Z,18.29
2018-04-28T00:29:47.686Z,18.29
2018-04-28T00:30:47.772Z,18.3
2018-04-28T00:31:47.685Z,18.29
2018-04-28T00:32:47.795Z,18.3
2018-04-28T00:33:47.794Z,18.29
2018-04-28T00:34:50.732Z,18.29
2018-04-28T00:35:47.586Z,18.28
2018-04-28T00:36:47.629Z,18.3
2018-04-28T00:37:47.680Z,18.3
2018-04-28T00:38:47.746Z,18.3
2018-04-28T00:39:47.601Z,18.28
2018-04-28T00:40:47.890Z,18.3
2018-04-28T00:41:47.769Z,18.28
2018-04-28T00:42:47.633Z,18.29
2018-04-28T00:43:47.826Z,18.3
2018-04-28T00:44:47.617Z,18.26
2018-04-28T00:45:47.446Z,18.29
2018-04-28T00:46:47.698Z,18.3
2018-04-28T00:47:47.705Z,18.28
2018-04-28T00:48:47.607Z,18.3
2018-04-28T00:49:47.583Z,18.28
2018-04-28T00:50:47.562Z,18.26
2018-04-28T00:51:47.641Z,18.28
2018-04-28T00:52:47.792Z,18.28
2018-04-28T00:53:47.760Z,18.26
2018-04-28T00:54:47.683Z,18.25
2018-04-28T00:55:47.907Z,18.3
2018-04-28T00:56:47.752Z,18.26
2018-04-28T00:57:47.693Z,18.28
2018-04-28T00:58:47.755Z,18.26
2018-04-28T00:59:47.609Z,18.26
2018-04-28T01:00:47.683Z,18.28
2018-04-28T01:01:47.770Z,18.3
2018-04-28T01:02:47.723Z,18.23
2018-04-28T01:03:47.804Z,18.26
2018-04-28T01:04:47.923Z,18.28
2018-04-28T01:05:47.865Z,18.28
2018-04-28T01:06:47.709Z,18.28
2018-04-28T01:07:47.604Z,18.25
2018-04-28T01:08:48.023Z,18.26
2018-04-28T01:09:47.445Z,18.28
2018-04-28T01:10:47.967Z,18.26
2018-04-28T01:11:47.898Z,18.25
2018-04-28T01:12:47.735Z,18.26
2018-04-28T01:13:47.990Z,18.26
2018-04-28T01:14:47.713Z,18.25
2018-04-28T01:15:47.668Z,18.26
2018-04-28T01:16:47.943Z,18.26
2018-04-28T01:17:47.998Z,18.26
2018-04-28T01:18:47.725Z,18.26
2018-04-28T01:19:47.757Z,18.25
2018-04-28T01:20:48.026Z,18.23
2018-04-28T01:21:47.889Z,18.23
2018-04-28T01:22:47.804Z,18.28
2018-04-28T01:23:47.518Z,18.25
2018-04-28T01:24:47.641Z,18.25
2018-04-28T01:25:47.660Z,18.26
2018-04-28T01:26:47.726Z,18.25
2018-04-28T01:27:47.608Z,18.23
2018-04-28T01:28:47.686Z,18.25
2018-04-28T01:29:47.791Z,18.23
2018-04-28T01:30:47.985Z,18.25
2018-04-28T01:31:47.610Z,18.25
2018-04-28T01:32:47.832Z,18.25
2018-04-28T01:33:47.782Z,18.23
2018-04-28T01:34:47.683Z,18.23
2018-04-28T01:35:47.787Z,18.22
2018-04-28T01:36:47.572Z,18.26
2018-04-28T01:37:47.679Z,18.25
2018-04-28T01:38:47.586Z,18.22
2018-04-28T01:39:47.636Z,18.23
2018-04-28T01:40:47.607Z,18.25
2018-04-28T01:41:47.578Z,18.25
2018-04-28T01:42:47.836Z,18.25
2018-04-28T01:43:47.814Z,18.25
2018-04-28T01:44:47.646Z,18.22
2018-04-28T01:45:47.812Z,18.23
2018-04-28T01:46:47.856Z,18.23
2018-04-28T01:47:47.737Z,18.21
2018-04-28T01:48:47.908Z,18.25
2018-04-28T01:49:47.880Z,18.22
2018-04-28T01:50:47.968Z,18.23
2018-04-28T01:51:47.903Z,18.23
2018-04-28T01:52:47.800Z,18.25
2018-04-28T01:53:47.784Z,18.22
2018-04-28T01:54:47.797Z,18.25
2018-04-28T01:55:47.941Z,18.25
2018-04-28T01:56:47.957Z,18.22
2018-04-28T01:57:47.907Z,18.23
2018-04-28T01:58:47.872Z,18.23
2018-04-28T01:59:47.944Z,18.23
2018-04-28T02:00:47.986Z,18.23
2018-04-28T02:01:47.628Z,18.23
2018-04-28T02:02:47.786Z,18.22
2018-04-28T02:03:47.845Z,18.22
2018-04-28T02:04:47.745Z,18.22
2018-04-28T02:05:47.946Z,18.22
2018-04-28T02:06:47.655Z,18.25
2018-04-28T02:07:47.875Z,18.25
2018-04-28T02:08:47.791Z,18.22
2018-04-28T02:09:48.019Z,18.21
2018-04-28T02:10:48.840Z,18.23
2018-04-28T02:11:48.042Z,18.23
2018-04-28T02:12:47.889Z,18.22
2018-04-28T02:13:47.872Z,18.25
2018-04-28T02:14:48.517Z,18.22
2018-04-28T02:15:47.627Z,18.21
2018-04-28T02:16:47.857Z,18.22
2018-04-28T02:17:47.868Z,18.21
2018-04-28T02:18:47.909Z,18.21
2018-04-28T02:19:48.117Z,18.19
2018-04-28T02:20:47.976Z,18.21
2018-04-28T02:21:48.011Z,18.22
2018-04-28T02:22:48.011Z,18.22
2018-04-28T02:23:47.726Z,18.21
2018-04-28T02:24:47.706Z,18.21
2018-04-28T02:25:47.766Z,18.21
2018-04-28T02:26:47.765Z,18.19
2018-04-28T02:27:47.961Z,18.23
2018-04-28T02:28:48.305Z,18.23
2018-04-28T02:29:48.025Z,18.18
2018-04-28T02:30:47.642Z,18.21
2018-04-28T02:31:48.002Z,18.21
2018-04-28T02:32:47.622Z,18.21
2018-04-28T02:33:48.296Z,18.22
2018-04-28T02:34:47.861Z,18.23
2018-04-28T02:35:47.881Z,18.21
2018-04-28T02:36:47.747Z,18.22
2018-04-28T02:37:47.984Z,18.21
2018-04-28T02:38:48.206Z,18.18
2018-04-28T02:39:47.828Z,18.21
2018-04-28T02:40:47.535Z,18.21
2018-04-28T02:41:47.787Z,18.18
2018-04-28T02:42:47.594Z,18.18
2018-04-28T02:43:48.358Z,18.21
2018-04-28T02:44:47.987Z,18.21
2018-04-28T02:45:47.957Z,18.21
2018-04-28T02:46:47.684Z,18.21
2018-04-28T02:47:47.988Z,18.18
2018-04-28T02:48:47.964Z,18.19
2018-04-28T02:49:47.688Z,18.16
2018-04-28T02:50:47.617Z,18.19
2018-04-28T02:51:48.009Z,18.21
2018-04-28T02:52:47.966Z,18.19
2018-04-28T02:53:47.873Z,18.21
2018-04-28T02:54:47.931Z,18.21
2018-04-28T02:55:47.916Z,18.19
2018-04-28T02:56:47.615Z,18.19
2018-04-28T02:57:48.058Z,18.18
2018-04-28T02:58:47.516Z,18.21
2018-04-28T02:59:47.857Z,18.19
2018-04-28T03:00:48.174Z,18.19
2018-04-28T03:01:47.566Z,18.19
2018-04-28T03:02:47.794Z,18.18
2018-04-28T03:03:47.578Z,18.18
2018-04-28T03:04:47.739Z,18.19
2018-04-28T03:05:47.720Z,18.16
2018-04-28T03:06:47.725Z,18.18
2018-04-28T03:07:47.701Z,18.16
2018-04-28T03:08:47.794Z,18.18
2018-04-28T03:09:47.499Z,18.21
2018-04-28T03:10:47.893Z,18.18
2018-04-28T03:11:47.533Z,18.16
2018-04-28T03:12:47.808Z,18.16
2018-04-28T03:13:47.576Z,18.21
2018-04-28T03:14:47.720Z,18.19
2018-04-28T03:15:47.498Z,18.18
2018-04-28T03:16:47.613Z,18.19
2018-04-28T03:17:47.480Z,18.21
2018-04-28T03:18:47.601Z,18.19
2018-04-28T03:19:47.783Z,18.19
2018-04-28T03:20:47.691Z,18.16
2018-04-28T03:21:47.661Z,18.19
2018-04-28T03:22:47.572Z,18.19
2018-04-28T03:23:47.723Z,18.18
2018-04-28T03:24:47.622Z,18.18
2018-04-28T03:25:47.760Z,18.18
2018-04-28T03:26:47.826Z,18.15
2018-04-28T03:27:47.595Z,18.18
2018-04-28T03:28:47.588Z,18.16
2018-04-28T03:29:47.562Z,18.16
2018-04-28T03:30:47.518Z,18.16
2018-04-28T03:31:47.705Z,18.19
2018-04-28T03:32:47.562Z,18.16
2018-04-28T03:33:47.647Z,18.18
2018-04-28T03:34:47.576Z,18.18
2018-04-28T03:35:47.745Z,18.13
2018-04-28T03:36:47.481Z,18.16
2018-04-28T03:37:47.758Z,18.18
2018-04-28T03:38:47.672Z,18.16
2018-04-28T03:39:47.567Z,18.16
2018-04-28T03:40:47.717Z,18.16
2018-04-28T03:41:47.536Z,18.15
2018-04-28T03:42:47.536Z,18.16
2018-04-28T03:43:47.745Z,18.16
2018-04-28T03:44:47.577Z,18.15
2018-04-28T03:45:47.574Z,18.19
2018-04-28T03:46:47.739Z,18.18
2018-04-28T03:47:47.668Z,18.18
2018-04-28T03:48:47.868Z,18.16
2018-04-28T03:49:47.886Z,18.16
2018-04-28T03:50:47.543Z,18.15
2018-04-28T03:51:47.742Z,18.16
2018-04-28T03:52:47.587Z,18.16
2018-04-28T03:53:47.693Z,18.16
2018-04-28T03:54:47.823Z,18.16
2018-04-28T03:55:47.521Z,18.15
2018-04-28T03:56:47.666Z,18.15
2018-04-28T03:57:47.748Z,18.16
2018-04-28T03:58:47.526Z,18.16
2018-04-28T03:59:47.572Z,18.16
2018-04-28T04:00:47.564Z,18.16
2018-04-28T04:01:47.538Z,18.15
2018-04-28T04:02:47.608Z,18.13
2018-04-28T04:03:47.574Z,18.18
2018-04-28T04:04:47.526Z,18.13
2018-04-28T04:05:47.677Z,18.15
2018-04-28T04:06:47.739Z,18.15
2018-04-28T04:07:47.760Z,18.16
2018-04-28T04:08:47.720Z,18.15
2018-04-28T04:09:47.661Z,18.13
2018-04-28T04:10:47.717Z,18.13
2018-04-28T04:11:47.538Z,18.16
2018-04-28T04:12:47.509Z,18.16
2018-04-28T04:13:47.712Z,18.13
2018-04-28T04:14:47.597Z,18.12
2018-04-28T04:15:48.004Z,18.13
2018-04-28T04:16:47.599Z,18.16
2018-04-28T04:17:47.454Z,18.15
2018-04-28T04:18:47.742Z,18.16
2018-04-28T04:19:47.544Z,18.15
2018-04-28T04:20:47.617Z,18.13
2018-04-28T04:21:47.778Z,18.16
2018-04-28T04:22:47.894Z,18.18
2018-04-28T04:23:47.551Z,18.16
2018-04-28T04:24:47.613Z,18.16
2018-04-28T04:25:47.620Z,18.16
2018-04-28T04:26:47.766Z,18.13
2018-04-28T04:27:47.502Z,18.16
2018-04-28T04:28:47.590Z,18.15
2018-04-28T04:29:47.696Z,18.15
2018-04-28T04:30:47.480Z,18.16
2018-04-28T04:31:47.956Z,18.16
2018-04-28T04:32:47.561Z,18.13
2018-04-28T04:33:47.482Z,18.13
2018-04-28T04:34:47.500Z,18.13
2018-04-28T04:35:47.641Z,18.13
2018-04-28T04:36:47.580Z,18.16
2018-04-28T04:37:48.472Z,18.15
2018-04-28T04:38:47.649Z,18.15
2018-04-28T04:39:47.495Z,18.13
2018-04-28T04:40:47.633Z,18.15
2018-04-28T04:41:47.708Z,18.11
2018-04-28T04:42:47.628Z,18.15
2018-04-28T04:43:47.654Z,18.15
2018-04-28T04:44:47.745Z,18.11
2018-04-28T04:45:47.685Z,18.13
2018-04-28T04:46:47.475Z,18.15
2018-04-28T04:47:47.663Z,18.13
2018-04-28T04:48:47.571Z,18.13
2018-04-28T04:49:47.656Z,18.13
2018-04-28T04:50:47.530Z,18.15
2018-04-28T04:51:47.555Z,18.15
2018-04-28T04:52:47.508Z,18.15
2018-04-28T04:53:47.727Z,18.12
2018-04-28T04:54:47.731Z,18.13
2018-04-28T04:55:47.744Z,18.16
2018-04-28T04:56:47.623Z,18.12
2018-04-28T04:57:47.470Z,18.13
2018-04-28T04:58:47.641Z,18.16
2018-04-28T04:59:47.817Z,18.15
2018-04-28T05:00:47.761Z,18.15
2018-04-28T05:01:47.657Z,18.13
2018-04-28T05:02:47.887Z,18.12
2018-04-28T05:03:47.681Z,18.13
2018-04-28T05:04:47.466Z,18.16
2018-04-28T05:05:47.518Z,18.13
2018-04-28T05:06:47.588Z,18.15
2018-04-28T05:07:47.572Z,18.15
2018-04-28T05:08:47.622Z,18.12
2018-04-28T05:09:47.594Z,18.15
2018-04-28T05:10:47.673Z,18.15
2018-04-28T05:11:47.384Z,18.13
2018-04-28T05:12:47.558Z,18.15
2018-04-28T05:13:47.657Z,18.13
2018-04-28T05:14:47.664Z,18.13
2018-04-28T05:15:47.697Z,18.13
2018-04-28T05:16:47.622Z,18.15
2018-04-28T05:17:47.562Z,18.12
2018-04-28T05:18:47.663Z,18.13
2018-04-28T05:19:47.443Z,18.13
2018-04-28T05:20:47.622Z,18.12
2018-04-28T05:21:47.444Z,18.13
2018-04-28T05:22:47.727Z,18.15
2018-04-28T05:23:47.536Z,18.13
2018-04-28T05:24:47.793Z,18.13
2018-04-28T05:25:47.514Z,18.16
2018-04-28T05:26:47.616Z,18.13
2018-04-28T05:27:47.584Z,18.16
2018-04-28T05:28:47.615Z,18.16
2018-04-28T05:29:47.637Z,18.12
2018-04-28T05:30:47.403Z,18.15
2018-04-28T05:31:47.488Z,18.13
2018-04-28T05:32:48.047Z,18.15
2018-04-28T05:33:47.576Z,18.13
2018-04-28T05:34:47.644Z,18.16
2018-04-28T05:35:47.695Z,18.13
2018-04-28T05:36:47.685Z,18.12
2018-04-28T05:37:47.659Z,18.15
2018-04-28T05:38:47.634Z,18.15
2018-04-28T05:39:47.438Z,18.12
2018-04-28T05:40:47.712Z,18.15
2018-04-28T05:41:47.588Z,18.13
2018-04-28T05:42:47.693Z,18.15
2018-04-28T05:43:47.493Z,18.18
2018-04-28T05:44:47.621Z,18.13
2018-04-28T05:45:47.488Z,18.16
2018-04-28T05:46:47.627Z,18.15
2018-04-28T05:47:47.579Z,18.13
2018-04-28T05:48:47.452Z,18.15
2018-04-28T05:49:47.512Z,18.15
2018-04-28T05:50:47.551Z,18.13
2018-04-28T05:51:47.727Z,18.13
2018-04-28T05:52:47.481Z,18.16
2018-04-28T05:53:47.586Z,18.15
2018-04-28T05:54:47.545Z,18.13
2018-04-28T05:55:47.560Z,18.16
2018-04-28T05:56:47.737Z,18.13
2018-04-28T05:57:48.385Z,18.15
2018-04-28T05:58:47.514Z,18.15
2018-04-28T05:59:47.651Z,18.15
2018-04-28T06:00:47.528Z,18.13
2018-04-28T06:01:47.720Z,18.15
2018-04-28T06:02:47.631Z,18.15
2018-04-28T06:03:47.501Z,18.15
2018-04-28T06:04:47.759Z,18.16
2018-04-28T06:05:47.802Z,18.15
2018-04-28T06:06:47.522Z,18.16
2018-04-28T06:07:47.544Z,18.18
2018-04-28T06:08:47.496Z,18.15
2018-04-28T06:09:47.456Z,18.15
2018-04-28T06:10:47.454Z,18.16
2018-04-28T06:11:47.593Z,18.16
2018-04-28T06:12:47.521Z,18.16
2018-04-28T06:13:47.517Z,18.15
2018-04-28T06:14:47.625Z,18.16
2018-04-28T06:15:47.589Z,18.18
2018-04-28T06:16:47.641Z,18.16
2018-04-28T06:17:47.571Z,18.13
2018-04-28T06:18:47.514Z,18.18
2018-04-28T06:19:47.554Z,18.15
2018-04-28T06:20:47.508Z,18.15
2018-04-28T06:21:47.620Z,18.16
2018-04-28T06:22:47.512Z,18.16
2018-04-28T06:23:47.641Z,18.16
2018-04-28T06:24:47.769Z,18.18
2018-04-28T06:25:47.460Z,18.16
2018-04-28T06:26:47.519Z,18.15
2018-04-28T06:27:47.478Z,18.15
2018-04-28T06:28:47.659Z,18.15
2018-04-28T06:29:47.647Z,18.13
2018-04-28T06:30:47.677Z,18.12
2018-04-28T06:31:47.522Z,18.16
2018-04-28T06:32:47.646Z,18.16
2018-04-28T06:33:47.754Z,18.18
2018-04-28T06:34:47.619Z,18.16
2018-04-28T06:35:48.250Z,18.16
2018-04-28T06:36:47.707Z,18.16
2018-04-28T06:37:47.473Z,18.16
2018-04-28T06:38:47.530Z,18.16
2018-04-28T06:39:47.685Z,18.18
2018-04-28T06:40:47.610Z,18.19
2018-04-28T06:41:47.561Z,18.13
2018-04-28T06:42:47.658Z,18.15
2018-04-28T06:43:47.637Z,18.19
2018-04-28T06:44:47.728Z,18.16
2018-04-28T06:45:47.438Z,18.18
2018-04-28T06:46:47.454Z,18.16
2018-04-28T06:47:47.468Z,18.13
2018-04-28T06:48:47.623Z,18.18
2018-04-28T06:49:47.514Z,18.16
2018-04-28T06:50:47.642Z,18.15
2018-04-28T06:51:47.493Z,18.16
2018-04-28T06:52:47.630Z,18.18
2018-04-28T06:53:47.415Z,18.15
2018-04-28T06:54:47.641Z,18.18
2018-04-28T06:55:47.610Z,18.19
2018-04-28T06:56:47.734Z,18.16
2018-04-28T06:57:47.610Z,18.18
2018-04-28T06:58:47.676Z,18.16
2018-04-28T06:59:47.555Z,18.16
2018-04-28T07:00:47.771Z,18.16
2018-04-28T07:01:47.459Z,18.16
2018-04-28T07:02:47.500Z,18.18
2018-04-28T07:03:47.599Z,18.18
2018-04-28T07:04:47.426Z,18.19
2018-04-28T07:05:47.454Z,18.15
2018-04-28T07:06:47.391Z,18.19
2018-04-28T07:07:47.646Z,18.16
2018-04-28T07:08:47.563Z,18.15
2018-04-28T07:09:47.465Z,18.16
2018-04-28T07:10:48.273Z,18.19
2018-04-28T07:11:47.453Z,18.15
2018-04-28T07:12:47.808Z,18.15
2018-04-28T07:13:47.525Z,18.18
2018-04-28T07:14:47.750Z,18.16
2018-04-28T07:15:47.655Z,18.18
2018-04-28T07:16:47.604Z,18.16
2018-04-28T07:17:47.442Z,18.15
2018-04-28T07:18:47.559Z,18.16
2018-04-28T07:19:47.430Z,18.18
2018-04-28T07:20:47.548Z,18.15
2018-04-28T07:21:47.591Z,18.16
2018-04-28T07:22:47.585Z,18.18
2018-04-28T07:23:47.511Z,18.15
2018-04-28T07:24:47.417Z,18.18
2018-04-28T07:25:47.558Z,18.18
2018-04-28T07:26:47.703Z,18.15
2018-04-28T07:27:47.523Z,18.18
2018-04-28T07:28:47.562Z,18.15
2018-04-28T07:29:47.588Z,18.23
2018-04-28T07:30:47.530Z,18.25
2018-04-28T07:31:47.421Z,18.29
2018-04-28T07:32:47.618Z,18.25
2018-04-28T07:33:47.736Z,18.22
2018-04-28T07:34:47.582Z,18.23
2018-04-28T07:35:47.486Z,18.25
2018-04-28T07:36:47.663Z,18.28
2018-04-28T07:37:47.659Z,18.29
2018-04-28T07:38:47.617Z,18.32
2018-04-28T07:39:47.624Z,18.32
2018-04-28T07:40:47.417Z,18.33
2018-04-28T07:41:47.560Z,18.36
2018-04-28T07:42:47.841Z,18.39
2018-04-28T07:43:47.350Z,18.36
2018-04-28T07:44:47.853Z,18.36
2018-04-28T07:45:47.625Z,18.39
2018-04-28T07:46:47.469Z,18.4
2018-04-28T07:47:47.490Z,18.44
2018-04-28T07:48:47.629Z,18.43
2018-04-28T07:49:47.507Z,18.43
2018-04-28T07:50:47.491Z,18.43
2018-04-28T07:51:47.530Z,18.41
2018-04-28T07:52:47.548Z,18.41
2018-04-28T07:53:47.607Z,18.4
2018-04-28T07:54:47.827Z,18.39
2018-04-28T07:55:47.513Z,18.39
2018-04-28T07:56:47.646Z,18.39
2018-04-28T07:57:47.505Z,18.41
2018-04-28T07:58:47.489Z,18.36
2018-04-28T07:59:47.575Z,18.39
2018-04-28T08:00:47.554Z,18.39
2018-04-28T08:01:47.639Z,18.36
2018-04-28T08:02:47.467Z,18.39
2018-04-28T08:03:47.758Z,18.36
2018-04-28T08:04:47.481Z,18.35
2018-04-28T08:05:47.646Z,18.36
2018-04-28T08:06:47.564Z,18.37
2018-04-28T08:07:47.735Z,18.36
2018-04-28T08:08:47.511Z,18.36
2018-04-28T08:09:47.614Z,18.37
2018-04-28T08:10:47.548Z,18.37
2018-04-28T08:11:47.495Z,18.36
2018-04-28T08:12:47.572Z,18.37
2018-04-28T08:13:47.586Z,18.37
2018-04-28T08:14:47.566Z,18.37
2018-04-28T08:15:47.579Z,18.36
2018-04-28T08:16:47.641Z,18.37
2018-04-28T08:17:47.484Z,18.35
2018-04-28T08:18:47.441Z,18.33
2018-04-28T08:19:47.458Z,18.33
2018-04-28T08:20:48.111Z,18.3
2018-04-28T08:21:47.465Z,18.3
2018-04-28T08:22:47.472Z,18.32
2018-04-28T08:23:47.578Z,18.3
2018-04-28T08:24:47.548Z,18.32
2018-04-28T08:25:47.629Z,18.32
2018-04-28T08:26:47.469Z,18.29
2018-04-28T08:27:47.439Z,18.32
2018-04-28T08:28:47.444Z,18.3
2018-04-28T08:29:47.567Z,18.29
2018-04-28T08:30:47.611Z,18.29
2018-04-28T08:31:47.543Z,18.32
2018-04-28T08:32:47.639Z,18.26
2018-04-28T08:33:47.488Z,18.29
2018-04-28T08:34:47.605Z,18.3
2018-04-28T08:35:47.462Z,18.26
2018-04-28T08:36:48.027Z,18.28
2018-04-28T08:37:48.918Z,18.28
2018-04-28T08:38:47.500Z,18.25
2018-04-28T08:39:47.616Z,18.29
2018-04-28T08:40:47.422Z,18.3
2018-04-28T08:41:47.439Z,18.26
2018-04-28T08:42:47.636Z,18.28
2018-04-28T08:43:47.532Z,18.26
2018-04-28T08:44:47.474Z,18.26
2018-04-28T08:45:47.535Z,18.26
2018-04-28T08:46:47.572Z,18.26
2018-04-28T08:47:47.674Z,18.25
2018-04-28T08:48:47.474Z,18.26
2018-04-28T08:49:47.493Z,18.28
2018-04-28T08:50:47.376Z,18.28
2018-04-28T08:51:47.520Z,18.23
2018-04-28T08:52:47.535Z,18.26
2018-04-28T08:53:47.601Z,18.25
2018-04-28T08:54:47.513Z,18.26
2018-04-28T08:55:47.605Z,18.26
2018-04-28T08:56:47.513Z,18.26
2018-04-28T08:57:47.591Z,18.26
2018-04-28T08:58:47.565Z,18.26
2018-04-28T08:59:47.433Z,18.25
2018-04-28T09:00:47.639Z,18.29
2018-04-28T09:01:47.579Z,18.3
2018-04-28T09:02:47.454Z,18.37
2018-04-28T09:03:48.113Z,18.39
2018-04-28T09:04:47.653Z,18.39
2018-04-28T09:05:47.684Z,18.4
2018-04-28T09:06:47.572Z,18.41
2018-04-28T09:07:47.565Z,18.4
2018-04-28T09:08:47.407Z,18.41
2018-04-28T09:09:47.455Z,18.44
2018-04-28T09:10:47.642Z,18.46
2018-04-28T09:11:47.630Z,18.46
2018-04-28T09:12:47.566Z,18.46
2018-04-28T09:13:47.515Z,18.47
2018-04-28T09:14:47.472Z,18.47
2018-04-28T09:15:47.500Z,18.47
2018-04-28T09:16:47.520Z,18.44
2018-04-28T09:17:47.632Z,18.44
2018-04-28T09:18:47.900Z,18.43
2018-04-28T09:19:47.549Z,18.43
2018-04-28T09:20:47.592Z,18.43
2018-04-28T09:21:47.421Z,18.43
2018-04-28T09:22:47.736Z,18.44
2018-04-28T09:23:50.206Z,18.43
2018-04-28T09:24:48.320Z,18.46
2018-04-28T09:25:47.594Z,18.44
2018-04-28T09:26:47.885Z,18.41
2018-04-28T09:27:47.424Z,18.41
2018-04-28T09:28:47.751Z,18.4
2018-04-28T09:29:47.393Z,18.43
2018-04-28T09:30:47.917Z,18.47
2018-04-28T09:31:47.501Z,18.46
2018-04-28T09:32:47.638Z,18.46
2018-04-28T09:33:48.014Z,18.49
2018-04-28T09:34:47.544Z,18.49
2018-04-28T09:35:47.562Z,18.53
2018-04-28T09:36:47.662Z,18.51
2018-04-28T09:37:47.605Z,18.5
2018-04-28T09:38:47.588Z,18.54
2018-04-28T09:39:47.868Z,18.54
2018-04-28T09:40:47.420Z,18.54
2018-04-28T09:41:47.261Z,18.57
2018-04-28T09:42:47.433Z,18.54
2018-04-28T09:43:47.448Z,18.56
2018-04-28T09:44:47.595Z,18.56
2018-04-28T09:45:47.419Z,18.57
2018-04-28T09:46:47.378Z,18.57
2018-04-28T09:47:47.838Z,18.57
2018-04-28T09:48:47.460Z,18.6
2018-04-28T09:49:47.689Z,18.57
2018-04-28T09:50:47.497Z,18.57
2018-04-28T09:51:47.577Z,18.56
2018-04-28T09:52:48.065Z,18.57
2018-04-28T09:53:47.527Z,18.6
2018-04-28T09:54:47.835Z,18.6
2018-04-28T09:55:48.192Z,18.6
2018-04-28T09:56:47.826Z,18.58
2018-04-28T09:57:47.704Z,18.58
2018-04-28T09:58:47.361Z,18.58
2018-04-28T09:59:47.373Z,18.58
2018-04-28T10:00:47.416Z,18.6
2018-04-28T10:01:47.511Z,18.6
2018-04-28T10:02:47.526Z,18.64
2018-04-28T10:03:47.418Z,18.6
2018-04-28T10:04:47.483Z,18.6
2018-04-28T10:05:47.570Z,18.67
2018-04-28T10:06:47.575Z,18.66
2018-04-28T10:07:47.523Z,18.63
2018-04-28T10:08:47.516Z,18.63
2018-04-28T10:09:47.290Z,18.62
2018-04-28T10:10:47.471Z,18.62
2018-04-28T10:11:47.393Z,18.6
2018-04-28T10:12:48.471Z,18.58
2018-04-28T10:13:47.498Z,18.57
2018-04-28T10:14:47.329Z,18.56
2018-04-28T10:15:47.459Z,18.56
2018-04-28T10:16:47.409Z,18.66
2018-04-28T10:17:47.440Z,18.62
2018-04-28T10:18:47.415Z,18.63
2018-04-28T10:19:47.646Z,18.64
2018-04-28T10:20:47.473Z,18.63
2018-04-28T10:21:47.405Z,18.63
2018-04-28T10:22:47.568Z,18.64
2018-04-28T10:23:47.442Z,18.62
2018-04-28T10:24:47.604Z,18.64
2018-04-28T10:25:47.481Z,18.77
2018-04-28T10:26:47.477Z,18.84
2018-04-28T10:27:47.956Z,18.8
2018-04-28T10:28:47.520Z,18.75
2018-04-28T10:29:47.332Z,18.75
2018-04-28T10:30:47.779Z,18.7
2018-04-28T10:31:47.549Z,18.73
2018-04-28T10:32:47.531Z,18.7
2018-04-28T10:33:47.534Z,18.68
2018-04-28T10:34:47.654Z,18.71
2018-04-28T10:35:47.448Z,18.67
2018-04-28T10:36:47.525Z,18.66
2018-04-28T10:37:47.525Z,18.63
2018-04-28T10:38:47.694Z,18.64
2018-04-28T10:39:47.559Z,18.63
2018-04-28T10:40:47.391Z,18.58
2018-04-28T10:41:47.675Z,18.62
2018-04-28T10:42:47.475Z,18.62
2018-04-28T10:43:47.524Z,18.58
2018-04-28T10:44:47.556Z,18.58
2018-04-28T10:45:47.469Z,18.6
2018-04-28T10:46:47.401Z,18.57
2018-04-28T10:47:47.485Z,18.57
2018-04-28T10:48:47.459Z,18.58
2018-04-28T10:49:47.558Z,18.6
2018-04-28T10:50:47.623Z,18.57
2018-04-28T10:51:47.428Z,18.57
2018-04-28T10:52:47.326Z,18.58
2018-04-28T10:53:48.029Z,18.57
2018-04-28T10:54:47.841Z,18.56
2018-04-28T10:55:47.535Z,18.56
2018-04-28T10:56:47.474Z,18.56
2018-04-28T10:57:47.455Z,18.54
2018-04-28T10:58:47.575Z,18.54
2018-04-28T10:59:47.538Z,18.54
2018-04-28T11:00:47.824Z,18.54
2018-04-28T11:01:47.945Z,18.56
2018-04-28T11:02:47.469Z,18.54
2018-04-28T11:03:47.444Z,18.53
2018-04-28T11:04:47.816Z,18.51
2018-04-28T11:05:47.323Z,18.5
2018-04-28T11:06:47.553Z,18.54
2018-04-28T11:07:47.461Z,18.54
2018-04-28T11:08:47.432Z,18.51
2018-04-28T11:09:47.547Z,18.54
2018-04-28T11:10:47.554Z,18.53
2018-04-28T11:11:47.339Z,18.49
2018-04-28T11:12:47.494Z,18.49
2018-04-28T11:13:47.596Z,18.51
2018-04-28T11:14:47.519Z,18.51
2018-04-28T11:15:47.482Z,18.56
2018-04-28T11:16:47.464Z,18.56
2018-04-28T11:17:47.402Z,18.53
2018-04-28T11:18:47.624Z,18.56
2018-04-28T11:19:47.911Z,18.56
2018-04-28T11:20:47.580Z,18.56
2018-04-28T11:21:47.404Z,18.58
2018-04-28T11:22:47.737Z,18.6
2018-04-28T11:23:47.500Z,18.6
2018-04-28T11:24:47.724Z,18.62
2018-04-28T11:25:47.929Z,18.62
2018-04-28T11:26:47.380Z,18.64
2018-04-28T11:27:47.457Z,18.63
2018-04-28T11:28:47.458Z,18.63
2018-04-28T11:29:47.680Z,18.63
2018-04-28T11:30:47.517Z,18.62
2018-04-28T11:31:47.440Z,18.64
2018-04-28T11:32:47.730Z,18.6
2018-04-28T11:33:47.544Z,18.63
2018-04-28T11:34:47.517Z,18.63
2018-04-28T11:35:47.458Z,18.6
2018-04-28T11:36:47.451Z,18.62
2018-04-28T11:37:47.391Z,18.62
2018-04-28T11:38:47.436Z,18.6
2018-04-28T11:39:47.601Z,18.58
2018-04-28T11:40:47.503Z,18.6
2018-04-28T11:41:47.405Z,18.58
2018-04-28T11:42:47.540Z,18.56
2018-04-28T11:43:47.531Z,18.57
2018-04-28T11:44:47.461Z,18.56
2018-04-28T11:45:47.704Z,18.57
2018-04-28T11:46:47.496Z,18.54
2018-04-28T11:47:47.788Z,18.56
2018-04-28T11:48:47.385Z,18.57
2018-04-28T11:49:47.308Z,18.57
2018-04-28T11:50:47.532Z,18.56
2018-04-28T11:51:47.563Z,18.56
2018-04-28T11:52:47.499Z,18.56
2018-04-28T11:53:47.522Z,18.54
2018-04-28T11:54:47.538Z,18.54
2018-04-28T11:55:47.412Z,18.56
2018-04-28T11:56:47.593Z,18.53
2018-04-28T11:57:47.479Z,18.54
2018-04-28T11:58:47.459Z,18.53
2018-04-28T11:59:47.434Z,18.53
2018-04-28T12:00:47.614Z,18.54
2018-04-28T12:01:47.375Z,18.53
2018-04-28T12:02:47.512Z,18.49
2018-04-28T12:03:47.406Z,18.5
2018-04-28T12:04:47.516Z,18.51
2018-04-28T12:05:48.099Z,18.49
2018-04-28T12:06:47.611Z,18.49
2018-04-28T12:07:47.521Z,18.51
2018-04-28T12:08:47.300Z,18.47
2018-04-28T12:09:47.517Z,18.5
2018-04-28T12:10:47.529Z,18.47
2018-04-28T12:11:47.429Z,18.44
2018-04-28T12:12:47.503Z,18.47
2018-04-28T12:13:47.560Z,18.47
2018-04-28T12:14:47.522Z,18.46
2018-04-28T12:15:47.474Z,18.47
2018-04-28T12:16:47.696Z,18.47
2018-04-28T12:17:47.926Z,18.46
2018-04-28T12:18:47.585Z,18.46
2018-04-28T12:19:47.448Z,18.46
2018-04-28T12:20:47.356Z,18.44
2018-04-28T12:21:47.389Z,18.44
2018-04-28T12:22:47.463Z,18.43
2018-04-28T12:23:47.567Z,18.44
2018-04-28T12:24:47.517Z,18.44
2018-04-28T12:25:47.557Z,18.43
2018-04-28T12:26:47.494Z,18.4
2018-04-28T12:27:47.282Z,18.43
2018-04-28T12:28:47.332Z,18.43
2018-04-28T12:29:48.156Z,18.43
2018-04-28T12:30:47.444Z,18.41
2018-04-28T12:31:47.381Z,18.4
2018-04-28T12:32:47.468Z,18.4
2018-04-28T12:33:47.368Z,18.41
2018-04-28T12:34:47.782Z,18.43
2018-04-28T12:35:47.462Z,18.41
2018-04-28T12:36:47.499Z,18.43
2018-04-28T12:37:47.402Z,18.39
2018-04-28T12:38:47.461Z,18.37
2018-04-28T12:39:47.567Z,18.4
2018-04-28T12:40:47.606Z,18.41
2018-04-28T12:41:47.505Z,18.39
2018-04-28T12:42:47.393Z,18.39
2018-04-28T12:43:47.561Z,18.4
2018-04-28T12:44:47.681Z,18.4
2018-04-28T12:45:47.335Z,18.4
2018-04-28T12:46:47.381Z,18.43
2018-04-28T12:47:47.354Z,18.39
2018-04-28T12:48:47.521Z,18.4
2018-04-28T12:49:47.480Z,18.41
2018-04-28T12:50:48.204Z,18.39
2018-04-28T12:51:47.493Z,18.4
2018-04-28T12:52:47.529Z,18.39
2018-04-28T12:53:47.453Z,18.39
2018-04-28T12:54:47.399Z,18.37